Time;durP1;ratioP1;P1;durP2;ratioP2;P2;SDS_P1;SDS_P2;PMS_P1;PMS_P2;Temp;Humidity;BMP_temperature;BMP_pressure;BME280_temperature;BME280_humidity;BME280_pressure;Samples;Min_cycle;Max_cycle;Signal;HPM_P1;HPM_P2
2022/04/20 00:05:44;;;;;;;92.87;38.93;;;;;;;0.10;72.76;98844.91;4132263;84;21043;-86
2022/04/20 00:11:53;;;;;;;82.62;34.73;;;;;;;-0.14;73.09;98849.30;4117658;84;21079;-86
2022/04/20 00:17:59;;;;;;;85.87;36.83;;;;;;;-0.14;74.42;98849.30;4040944;85;21104;-86
2022/04/20 00:24:09;;;;;;;96.32;41.60;;;;;;;-0.06;74.31;98843.97;4112364;85;21058;-87
2022/04/20 00:30:12;;;;;;;76.73;34.27;;;;;;;-0.09;74.05;98847.28;4116170;85;21680;-86
2022/04/20 00:36:18;;;;;;;82.75;35.15;;;;;;;-0.11;75.19;98839.29;4096760;85;21141;-86
2022/04/20 00:42:22;;;;;;;95.27;40.37;;;;;;;0.03;75.14;98839.19;4166588;85;21617;-87
2022/04/20 00:48:25;;;;;;;127.00;46.73;;;;;;;-0.12;74.54;98837.14;4088580;86;21050;-86
2022/04/20 00:54:29;;;;;;;108.93;41.83;;;;;;;-0.32;74.41;98844.39;4096873;85;21024;-86
2022/04/20 01:00:32;;;;;;;67.55;32.48;;;;;;;-0.40;74.71;98848.36;4087915;86;21149;-87
2022/04/20 01:06:36;;;;;;;93.45;38.75;;;;;;;-0.50;74.96;98850.74;4087357;85;21102;-87
2022/04/20 01:12:46;;;;;;;87.67;38.53;;;;;;;-0.55;75.15;98850.09;4070015;83;21535;-87
2022/04/20 01:19:21;;;;;;;72.75;35.60;;;;;;;-0.54;75.22;98849.78;4180791;85;21619;-86
2022/04/20 01:25:28;;;;;;;66.10;31.82;;;;;;;-0.54;76.16;98851.13;4130770;85;21619;-86
2022/04/20 01:31:51;;;;;;;79.13;35.00;;;;;;;-0.27;76.80;98849.62;4084987;85;21031;-87
2022/04/20 02:27:08;;;;;;;59.83;29.37;;;;;;;0.02;77.69;98825.50;4184377;82;21008;-85
2022/04/20 02:33:10;;;;;;;70.20;33.13;;;;;;;0.11;77.72;98819.02;4149710;84;21056;-86
2022/04/20 02:39:11;;;;;;;61.53;32.57;;;;;;;0.18;77.94;98802.42;4177555;84;21011;-86
2022/04/20 02:45:13;;;;;;;61.20;33.05;;;;;;;0.22;77.82;98800.14;4157000;84;21020;-86
2022/04/20 02:51:14;;;;;;;71.60;34.73;;;;;;;0.23;77.76;98798.25;4177744;84;21055;-85
2022/04/20 02:57:16;;;;;;;66.00;35.13;;;;;;;0.21;77.53;98810.67;4151351;84;21038;-86
2022/04/20 03:03:20;;;;;;;65.23;34.83;;;;;;;0.10;77.38;98808.02;4168542;84;21031;-85
2022/04/20 03:09:22;;;;;;;66.20;34.73;;;;;;;-0.13;77.06;98811.89;4152010;84;21024;-85
2022/04/20 03:15:23;;;;;;;72.60;37.03;;;;;;;-0.13;77.71;98814.58;4249774;82;22220;-85
2022/04/20 03:21:25;;;;;;;65.10;34.63;;;;;;;-0.29;77.10;98812.84;4264739;82;21510;-84
2022/04/20 03:27:28;;;;;;;63.43;33.27;;;;;;;-0.32;77.97;98813.46;4270175;82;21026;-85
2022/04/20 03:33:31;;;;;;;75.47;36.37;;;;;;;-0.24;77.92;98806.53;4245735;82;21748;-85
2022/04/20 03:39:33;;;;;;;78.53;36.80;;;;;;;-0.23;78.03;98804.87;4261197;82;21044;-85
2022/04/20 03:52:51;;;;;;;72.37;37.13;;;;;;;-0.33;77.83;98805.70;4257741;81;21077;-85
2022/04/20 03:58:53;;;;;;;73.47;36.47;;;;;;;-0.45;77.95;98802.76;4244527;82;21018;-85
2022/04/20 04:04:55;;;;;;;75.17;38.73;;;;;;;-0.65;77.92;98811.34;4241292;82;21081;-86
2022/04/20 04:10:59;;;;;;;64.62;33.83;;;;;;;-0.73;78.08;98808.03;4242998;82;21104;-86
2022/04/20 04:17:01;;;;;;;69.47;37.20;;;;;;;-0.78;78.53;98815.67;4226521;82;36459;-85
2022/04/20 04:23:02;;;;;;;80.50;39.73;;;;;;;-0.75;78.56;98818.32;4207026;82;21015;-86
2022/04/20 04:29:12;;;;;;;71.20;39.00;;;;;;;-0.61;79.17;98832.49;4118659;83;21050;-85
2022/04/20 04:35:17;;;;;;;84.87;42.40;;;;;;;-0.37;79.49;98830.26;4098190;84;21086;-85
2022/04/20 04:41:19;;;;;;;79.90;43.07;;;;;;;-0.15;80.14;98825.66;4114207;85;21079;-86
2022/04/20 04:53:40;;;;;;;88.00;47.58;;;;;;;0.53;81.70;98832.41;4108740;85;20975;-86
2022/04/20 04:59:43;;;;;;;87.72;48.15;;;;;;;0.97;82.06;98835.63;4093822;85;21075;-86
2022/04/20 05:05:48;;;;;;;80.15;44.70;;;;;;;1.38;82.36;98831.92;4100855;85;21125;-86
2022/04/20 05:11:51;;;;;;;80.55;43.83;;;;;;;1.68;81.95;98826.66;4101827;85;21528;-86
2022/04/20 05:17:54;;;;;;;70.55;41.18;;;;;;;1.85;81.82;98824.69;4115497;84;21138;-87
2022/04/20 05:23:58;;;;;;;75.40;43.17;;;;;;;2.02;81.87;98822.52;4117183;84;21050;-86
2022/04/20 05:29:59;;;;;;;72.58;40.40;;;;;;;2.18;81.98;98818.14;4185119;83;21096;-86
2022/04/20 05:36:01;;;;;;;93.30;45.20;;;;;;;2.31;81.76;98821.99;4206433;83;21041;-86
2022/04/20 05:49:01;;;;;;;104.87;54.53;;;;;;;2.82;81.36;98817.64;4207670;82;21039;-87
2022/04/20 05:55:05;;;;;;;101.75;54.60;;;;;;;2.93;80.87;98815.34;4216026;82;21101;-86
2022/04/20 06:01:08;;;;;;;92.75;52.43;;;;;;;3.05;81.59;98816.78;4132074;84;21059;-85
2022/04/20 06:07:21;;;;;;;103.90;56.48;;;;;;;3.18;81.05;98814.35;4122629;84;21056;-86
2022/04/20 06:13:25;;;;;;;102.05;55.12;;;;;;;3.36;80.84;98800.92;4126533;84;21057;-86
2022/04/20 06:19:34;;;;;;;101.60;56.35;;;;;;;3.59;81.33;98789.95;4130417;84;21552;-85
2022/04/20 06:25:42;;;;;;;105.65;57.95;;;;;;;3.82;81.05;98788.42;4130943;84;21079;-86
2022/04/20 06:31:52;;;;;;;106.25;57.27;;;;;;;4.08;81.33;98786.78;4069083;84;21070;-85
2022/04/20 06:37:55;;;;;;;90.50;52.45;;;;;;;4.22;80.53;98785.89;4128547;84;21071;-86
2022/04/20 06:44:00;;;;;;;86.82;49.50;;;;;;;4.30;80.72;98783.09;4126053;84;21610;-86
2022/04/20 06:50:07;;;;;;;98.05;52.45;;;;;;;4.45;81.02;98776.97;4079222;84;21346;-86
2022/04/20 07:02:38;;;;;;;102.47;55.67;;;;;;;4.77;80.31;98771.18;4129174;84;21019;-85
2022/04/20 07:08:50;;;;;;;94.28;49.50;;;;;;;4.84;80.40;98765.39;4129129;84;21029;-84
2022/04/20 07:14:54;;;;;;;94.20;53.28;;;;;;;4.94;80.83;98764.13;4122009;84;21117;-86
2022/04/20 07:20:56;;;;;;;97.78;54.67;;;;;;;5.10;80.61;98759.57;4126491;84;20949;-86
2022/04/20 07:27:02;;;;;;;66.42;38.05;;;;;;;5.36;80.36;98751.77;4101983;84;21073;-86
2022/04/20 07:33:08;;;;;;;74.82;43.35;;;;;;;5.47;79.89;98757.48;4078693;84;21023;-85
2022/04/20 07:39:25;;;;;;;72.90;42.38;;;;;;;5.58;79.35;98749.84;4134402;84;21065;-86
2022/04/20 07:45:45;;;;;;;;;;;;;;;5.65;78.95;98750.61;4125829;86;21000;-85
2022/04/20 07:52:00;;;;;;;71.80;40.10;;;;;;;5.71;78.67;98749.21;4124716;84;20502;-86
2022/04/20 07:58:08;;;;;;;64.25;39.78;;;;;;;5.74;78.51;98744.44;4115209;84;21075;-85
2022/04/20 08:04:20;;;;;;;65.80;39.83;;;;;;;5.73;77.93;98735.49;4118041;84;21055;-86
2022/04/20 08:10:23;;;;;;;60.67;36.23;;;;;;;5.79;78.23;98732.77;4128473;84;21396;-86
2022/04/20 08:16:27;;;;;;;54.10;30.72;;;;;;;5.85;77.69;98725.16;4125448;84;21028;-86
2022/04/20 08:23:12;;;;;;;55.28;31.62;;;;;;;6.05;77.71;98729.54;4013477;84;20997;-84
2022/04/20 08:29:13;;;;;;;48.73;28.85;;;;;;;6.15;77.42;98725.71;3968666;87;21043;-86
2022/04/20 08:35:14;;;;;;;51.83;30.35;;;;;;;6.17;76.69;98726.16;4132370;84;21670;-86
2022/04/20 08:41:16;;;;;;;53.83;28.95;;;;;;;6.24;76.70;98723.62;4134474;84;21640;-87
2022/04/20 08:47:21;;;;;;;49.83;27.75;;;;;;;6.30;75.87;98711.89;4135241;84;21104;-86
2022/04/20 08:53:23;;;;;;;51.00;26.85;;;;;;;6.27;75.93;98710.69;4139049;84;21056;-86
2022/04/20 08:59:26;;;;;;;37.35;21.77;;;;;;;6.41;76.27;98710.20;4137565;84;21349;-86
2022/04/20 09:05:30;;;;;;;39.40;23.25;;;;;;;6.55;75.56;98704.29;4090161;84;31065;-86
2022/04/20 09:11:32;;;;;;;34.90;19.77;;;;;;;6.57;75.46;98702.02;4012836;87;21058;-85
2022/04/20 09:17:45;;;;;;;40.52;21.82;;;;;;;6.65;74.91;98704.55;3998405;87;21666;-86
2022/04/20 09:23:47;;;;;;;36.48;22.95;;;;;;;6.71;75.17;98700.95;4098770;85;21724;-86
2022/04/20 09:29:55;;;;;;;39.42;24.63;;;;;;;6.84;74.68;98706.49;4141069;84;21052;-86
2022/04/20 09:35:59;;;;;;;40.45;21.77;;;;;;;6.84;74.52;98707.85;4167183;84;21111;-86
2022/04/20 09:42:06;;;;;;;37.77;22.37;;;;;;;6.79;74.17;98702.12;4171425;84;21740;-85
2022/04/20 09:54:57;;;;;;;36.63;20.95;;;;;;;6.58;73.58;98700.89;4163814;84;21608;-85
2022/04/20 10:00:58;;;;;;;34.53;20.57;;;;;;;6.58;73.28;98693.50;4169732;84;21072;-86
2022/04/20 10:06:59;;;;;;;29.60;19.25;;;;;;;6.67;72.46;98684.55;4166999;84;21371;-87
2022/04/20 10:13:03;;;;;;;31.40;19.60;;;;;;;6.61;71.29;98673.75;4119232;84;21032;-85
2022/04/20 10:26:14;;;;;;;24.32;16.10;;;;;;;6.97;71.66;98668.48;4153181;84;21176;-86
2022/04/20 10:32:32;;;;;;;27.67;14.63;;;;;;;7.25;70.56;98665.72;4160734;84;21829;-85
2022/04/20 10:38:32;;;;;;;23.55;13.28;;;;;;;7.35;69.53;98663.77;4163014;84;21008;-86
2022/04/20 10:45:24;;;;;;;19.35;12.18;;;;;;;7.43;69.05;98664.69;4166668;84;22339;-87
2022/04/20 10:51:42;;;;;;;16.02;11.05;;;;;;;7.67;68.89;98655.58;4162645;84;21040;-86
2022/04/20 10:57:45;;;;;;;13.70;9.95;;;;;;;7.95;68.42;98656.63;4165087;84;21052;-86
2022/04/20 11:04:06;;;;;;;13.75;9.90;;;;;;;8.31;67.80;98652.53;4170898;84;21118;-85
2022/04/20 11:10:08;;;;;;;17.25;10.65;;;;;;;8.70;65.77;98655.22;4170735;83;21076;-86
2022/04/20 11:22:46;;;;;;;18.05;9.78;;;;;;;9.09;64.47;98644.19;4164297;84;21119;-84
2022/04/20 11:28:49;;;;;;;16.40;9.70;;;;;;;9.41;64.35;98635.77;4127537;84;21983;-85
2022/04/20 11:35:05;;;;;;;18.05;9.80;;;;;;;9.69;63.96;98631.13;4081704;85;21051;-85
2022/04/20 11:41:06;;;;;;;14.03;9.13;;;;;;;9.89;62.43;98623.69;4080171;85;21516;-86
2022/04/20 11:47:10;;;;;;;16.75;9.30;;;;;;;9.72;61.36;98629.80;4042720;85;21078;-86
2022/04/20 11:53:15;;;;;;;16.55;9.80;;;;;;;9.70;60.96;98625.29;4088583;85;21324;-85
2022/04/20 11:59:30;;;;;;;14.47;9.55;;;;;;;9.61;60.84;98619.93;4076581;85;21201;-86
2022/04/20 12:05:38;;;;;;;16.93;8.78;;;;;;;9.50;58.60;98611.08;4087267;85;21139;-87
2022/04/20 12:11:41;;;;;;;21.77;10.15;;;;;;;9.44;59.13;98611.79;4080785;85;21087;-86
2022/04/20 12:17:42;;;;;;;13.68;7.75;;;;;;;9.58;58.40;98603.12;4083873;85;21653;-85
2022/04/20 12:23:46;;;;;;;15.03;9.43;;;;;;;9.65;59.57;98606.50;4088375;83;21705;-86
2022/04/20 12:29:59;;;;;;;16.55;10.72;;;;;;;9.62;58.52;98607.25;4133781;84;21108;-85
2022/04/20 12:36:07;;;;;;;16.62;9.88;;;;;;;9.39;56.25;98609.39;4165631;84;21075;-86
2022/04/20 12:42:18;;;;;;;25.35;11.25;;;;;;;9.22;57.82;98615.47;4174528;84;21048;-85
2022/04/20 12:48:21;;;;;;;16.20;10.72;;;;;;;9.18;57.94;98616.80;4175151;84;21048;-86
2022/04/20 12:54:24;;;;;;;19.12;11.80;;;;;;;9.00;57.59;98621.29;4179267;84;42980;-86
2022/04/20 13:06:48;;;;;;;17.82;11.35;;;;;;;8.77;57.65;98619.84;4084817;86;21011;-84
2022/04/20 13:12:53;;;;;;;20.23;11.28;;;;;;;8.69;56.81;98629.86;4172586;84;21002;-86
2022/04/20 13:18:54;;;;;;;24.55;13.10;;;;;;;8.58;57.71;98630.30;4172209;84;21056;-86
2022/04/20 13:31:18;;;;;;;21.95;13.48;;;;;;;8.48;58.03;98643.23;4141863;82;21056;-86
2022/04/20 13:37:19;;;;;;;19.35;13.43;;;;;;;8.35;57.56;98642.48;4137292;84;21532;-85
2022/04/20 13:43:20;;;;;;;22.90;13.93;;;;;;;8.19;57.33;98646.67;4140058;84;21620;-85
2022/04/20 13:49:22;;;;;;;26.42;13.68;;;;;;;8.16;58.00;98656.19;4137353;84;21076;-86
2022/04/20 13:55:27;;;;;;;23.45;14.85;;;;;;;8.09;58.18;98656.86;4135948;84;21048;-86
2022/04/20 14:01:28;;;;;;;18.35;13.40;;;;;;;7.99;58.04;98657.47;4169747;83;21044;-87
2022/04/20 14:07:29;;;;;;;22.87;13.65;;;;;;;7.90;58.55;98656.94;4136102;84;21036;-86
2022/04/20 14:13:30;;;;;;;27.73;13.28;;;;;;;7.85;58.37;98662.13;4138767;84;21044;-86
2022/04/20 14:19:32;;;;;;;19.80;12.45;;;;;;;7.79;58.82;98663.59;4139644;83;21009;-87
2022/04/20 14:32:09;;;;;;;20.97;13.60;;;;;;;7.77;59.16;98667.80;4145165;84;21033;-86
2022/04/20 14:38:34;;;;;;;16.82;11.78;;;;;;;7.76;59.05;98667.61;4146452;84;21092;-84
2022/04/20 14:44:36;;;;;;;19.02;12.50;;;;;;;7.74;59.47;98659.80;4147679;84;21051;-86
2022/04/20 14:50:39;;;;;;;21.15;12.78;;;;;;;7.76;59.79;98658.87;4145969;84;21175;-85
2022/04/20 14:56:40;;;;;;;20.10;11.68;;;;;;;7.81;60.19;98650.95;4144966;84;21048;-85
2022/04/20 15:02:42;;;;;;;18.85;11.38;;;;;;;7.84;60.08;98652.95;4146911;84;22010;-85
2022/04/20 15:08:43;;;;;;;18.45;12.13;;;;;;;7.89;60.21;98654.78;4147307;84;21080;-85
2022/04/20 15:14:45;;;;;;;18.82;11.55;;;;;;;7.89;59.35;98653.42;4148402;84;21111;-87
2022/04/20 15:21:11;;;;;;;17.30;10.65;;;;;;;7.91;59.72;98665.31;4151407;84;21024;-86
2022/04/20 15:27:31;;;;;;;23.95;11.80;;;;;;;7.90;59.43;98659.09;4223648;82;21040;-86
2022/04/20 15:33:33;;;;;;;20.27;11.43;;;;;;;7.88;59.55;98656.51;4145347;84;21456;-86
2022/04/20 15:39:34;;;;;;;15.68;10.80;;;;;;;7.86;59.62;98654.15;4221161;82;21044;-85
2022/04/20 15:45:37;;;;;;;17.52;10.53;;;;;;;7.83;59.86;98654.88;4206379;83;20991;-86
2022/04/20 15:51:38;;;;;;;15.25;10.75;;;;;;;7.84;59.63;98644.20;4237435;81;21570;-86
2022/04/20 16:04:01;;;;;;;64.27;31.62;;;;;;;7.78;59.72;98651.09;4235405;82;21081;-85
2022/04/20 16:10:04;;;;;;;25.48;16.15;;;;;;;7.79;59.92;98655.98;4262939;81;21127;-86
2022/04/20 16:16:06;;;;;;;29.40;16.02;;;;;;;7.74;59.96;98664.45;4234102;82;21038;-86
2022/04/20 16:22:07;;;;;;;31.60;16.32;;;;;;;7.72;60.72;98664.05;4246019;82;21026;-87
2022/04/20 16:28:46;;;;;;;28.05;16.30;;;;;;;7.69;61.20;98677.00;4197282;83;21041;-86
2022/04/20 16:35:05;;;;;;;20.55;13.65;;;;;;;7.63;60.96;98678.46;4164852;82;21134;-84
2022/04/20 16:41:05;;;;;;;24.72;15.30;;;;;;;7.52;61.49;98685.66;4171214;83;21039;-86
2022/04/20 16:47:14;;;;;;;26.57;15.23;;;;;;;7.44;61.90;98690.76;4176629;83;21046;-86
2022/04/20 16:53:15;;;;;;;26.57;16.27;;;;;;;7.34;62.02;98691.37;4168666;83;21040;-86
2022/04/20 16:59:16;;;;;;;24.05;15.65;;;;;;;7.29;62.39;98701.19;4147424;85;20982;-86
2022/04/20 17:05:18;;;;;;;22.25;15.05;;;;;;;7.24;62.94;98703.63;4222601;83;20995;-85
2022/04/20 17:11:25;;;;;;;23.40;16.00;;;;;;;7.17;63.22;98699.98;4175496;83;21059;-85
2022/04/20 17:17:27;;;;;;;19.98;14.35;;;;;;;7.10;63.24;98705.27;4091233;84;21009;-85
2022/04/20 17:30:01;;;;;;;28.35;16.10;;;;;;;7.01;63.63;98715.03;4057185;88;21056;-86
2022/04/20 17:42:25;;;;;;;20.72;13.75;;;;;;;6.89;63.95;98730.11;4084815;86;21060;-86
2022/04/20 17:48:27;;;;;;;17.77;13.18;;;;;;;6.85;64.18;98725.74;4085349;85;20969;-86
2022/04/20 17:54:28;;;;;;;21.95;13.55;;;;;;;6.81;64.60;98721.61;4059245;86;21079;-85
2022/04/20 18:00:30;;;;;;;22.48;14.58;;;;;;;6.74;64.64;98719.28;3950676;85;10000435;-85
2022/04/20 18:06:31;;;;;;;26.40;16.20;;;;;;;6.70;64.89;98719.80;4065948;86;21540;-86
2022/04/20 18:12:40;;;;;;;32.85;18.55;;;;;;;6.65;65.22;98711.34;4058312;86;20999;-86
2022/04/20 18:18:42;;;;;;;32.03;17.70;;;;;;;6.59;65.33;98709.25;4060897;84;21040;-85
2022/04/20 18:24:43;;;;;;;33.30;18.52;;;;;;;6.57;65.47;98712.33;4078510;84;21074;-87
2022/04/20 18:30:45;;;;;;;27.17;16.60;;;;;;;6.52;65.92;98713.95;4081089;82;21023;-86
2022/04/20 18:36:46;;;;;;;31.75;17.37;;;;;;;6.48;66.17;98709.02;4075959;85;21565;-86
2022/04/20 18:42:48;;;;;;;28.90;16.97;;;;;;;6.46;66.38;98699.06;4062980;86;21488;-86
2022/04/20 18:48:49;;;;;;;27.93;18.30;;;;;;;6.42;66.42;98695.49;4072383;86;21024;-86
2022/04/20 19:01:22;;;;;;;32.65;20.25;;;;;;;6.26;67.20;98675.11;4032027;85;22040;-86
2022/04/20 19:07:25;;;;;;;28.40;19.17;;;;;;;6.13;68.03;98666.87;4066465;86;21571;-86
2022/04/20 19:13:27;;;;;;;30.65;20.35;;;;;;;6.10;68.25;98663.50;4061387;86;21054;-85
2022/04/20 19:19:29;;;;;;;31.42;20.27;;;;;;;6.06;68.44;98646.30;4070674;84;21073;-87
2022/04/20 19:31:59;;;;;;;30.72;21.48;;;;;;;5.95;68.74;98634.99;4034286;85;21480;-85
2022/04/20 19:38:00;;;;;;;35.98;22.13;;;;;;;5.83;69.04;98643.22;4081314;84;21542;-86
2022/04/20 19:44:01;;;;;;;44.33;26.15;;;;;;;5.66;69.27;98656.57;4071564;86;21495;-85
2022/04/20 19:50:03;;;;;;;36.23;23.98;;;;;;;5.51;69.19;98675.58;4080488;86;21106;-85
2022/04/20 19:56:05;;;;;;;41.45;23.95;;;;;;;5.39;69.49;98684.56;4071545;84;21062;-85
2022/04/20 20:02:09;;;;;;;34.45;23.55;;;;;;;5.28;69.96;98690.28;4070302;86;21059;-85
2022/04/20 20:08:10;;;;;;;38.73;25.20;;;;;;;5.16;69.83;98701.77;4099882;85;21034;-85
2022/04/20 20:14:14;;;;;;;45.80;26.30;;;;;;;4.99;70.46;98698.80;4121893;83;21022;-85
2022/04/20 20:20:17;;;;;;;42.65;25.32;;;;;;;4.96;70.43;98704.11;4121197;84;21074;-86
2022/04/20 20:32:39;;;;;;;41.37;25.68;;;;;;;4.60;71.25;98703.66;4090702;85;21126;-86
2022/04/20 20:38:41;;;;;;;43.20;26.50;;;;;;;4.57;71.58;98713.25;4006038;86;21042;-85
2022/04/20 20:44:42;;;;;;;49.23;28.60;;;;;;;4.58;72.16;98716.20;4007068;86;21106;-85
2022/04/20 20:50:43;;;;;;;40.10;26.20;;;;;;;4.53;71.76;98712.36;4003137;86;22139;-85
2022/04/20 20:56:44;;;;;;;45.78;27.62;;;;;;;4.55;72.84;98715.53;4015657;87;21530;-85
2022/04/20 21:02:46;;;;;;;48.68;29.27;;;;;;;4.60;72.72;98707.14;4011706;87;21900;-85
2022/04/20 21:08:47;;;;;;;52.10;31.15;;;;;;;4.49;73.05;98702.55;4006604;86;21105;-86
2022/04/20 21:14:48;;;;;;;59.50;36.38;;;;;;;4.45;74.56;98702.44;4008841;87;21167;-85
2022/04/20 21:20:50;;;;;;;60.30;35.25;;;;;;;4.38;74.50;98701.44;4016905;87;21045;-84
2022/04/20 21:26:52;;;;;;;56.18;33.45;;;;;;;4.43;74.38;98697.91;4012488;87;21097;-85
2022/04/20 21:32:54;;;;;;;54.05;33.67;;;;;;;4.40;74.85;98697.83;4013264;87;21050;-85
2022/04/20 21:38:56;;;;;;;56.40;34.63;;;;;;;4.42;75.00;98696.34;4077115;86;21046;-85
2022/04/20 21:44:58;;;;;;;53.63;32.60;;;;;;;4.48;75.22;98694.97;4075525;86;21024;-86
2022/04/20 21:50:59;;;;;;;59.33;33.50;;;;;;;4.51;75.36;98689.45;4075239;86;21036;-86
2022/04/20 21:57:01;;;;;;;51.83;31.65;;;;;;;4.51;75.23;98686.16;4084850;86;21004;-86
2022/04/20 22:09:29;;;;;;;53.33;32.50;;;;;;;4.43;75.95;98696.56;4074359;85;21112;-86
2022/04/20 22:15:30;;;;;;;51.15;32.80;;;;;;;4.41;75.95;98703.46;4081127;85;21108;-86
2022/04/20 22:21:33;;;;;;;51.48;33.30;;;;;;;4.42;76.31;98697.70;4075202;86;21019;-86
2022/04/20 22:27:36;;;;;;;54.58;32.75;;;;;;;4.48;76.03;98700.39;4073963;86;21039;-86
2022/04/20 22:33:37;;;;;;;58.73;33.02;;;;;;;4.46;76.21;98689.09;4113893;82;20963;-86
2022/04/20 22:39:38;;;;;;;66.47;35.65;;;;;;;4.48;76.48;98689.55;4028668;87;21011;-86
2022/04/20 22:45:39;;;;;;;59.60;33.90;;;;;;;4.51;76.64;98691.58;4177502;83;20996;-85
2022/04/20 22:51:44;;;;;;;56.50;33.58;;;;;;;4.52;77.24;98686.40;4160636;83;21002;-86
2022/04/20 22:57:46;;;;;;;58.23;32.05;;;;;;;4.59;77.38;98678.46;4152517;85;21012;-86
2022/04/20 23:03:48;;;;;;;56.75;33.67;;;;;;;4.63;77.45;98671.23;4169072;83;21032;-85
2022/04/20 23:09:49;;;;;;;51.65;31.85;;;;;;;4.68;77.63;98676.39;4165438;83;21080;-86
2022/04/20 23:15:50;;;;;;;61.13;32.83;;;;;;;4.68;77.60;98664.19;4172719;83;21044;-86
2022/04/20 23:21:52;;;;;;;58.73;32.60;;;;;;;4.66;77.68;98658.91;4072368;84;21044;-85
2022/04/20 23:34:17;;;;;;;56.55;32.60;;;;;;;4.61;77.67;98648.30;4071909;86;21103;-86
2022/04/20 23:40:17;;;;;;;58.80;34.38;;;;;;;4.62;77.84;98637.66;4081929;86;21621;-86
2022/04/20 23:46:19;;;;;;;53.35;31.62;;;;;;;4.65;77.93;98644.55;4065864;86;21131;-86
2022/04/20 23:52:20;;;;;;;54.80;31.93;;;;;;;4.67;78.15;98641.49;4064361;86;21572;-85
2022/04/20 23:58:21;;;;;;;54.85;32.17;;;;;;;4.70;77.92;98636.17;4066792;86;21560;-86
